createdAt,value
2023-03-03T00:01:42.055Z,2.10
2023-03-03T00:04:09.023Z,2.10
2023-03-03T00:06:35.684Z,2.20
2023-03-03T00:09:02.335Z,2.20
2023-03-03T00:11:29.108Z,2.20
2023-03-03T00:13:56.735Z,2.10
2023-03-03T00:16:35.870Z,2.10
2023-03-03T00:19:02.831Z,2.20
2023-03-03T00:21:40.750Z,2.30
2023-03-03T00:24:23.715Z,2.30
2023-03-03T00:26:55.970Z,2.20
2023-03-03T00:29:31.738Z,2.20
2023-03-03T00:32:13.600Z,2.10
2023-03-03T00:34:41.877Z,1.90
2023-03-03T00:37:31.492Z,2.00
2023-03-03T00:40:18.399Z,2.00
2023-03-03T00:42:58.407Z,2.10
2023-03-03T00:45:35.792Z,2.10
2023-03-03T00:48:22.186Z,2.10
2023-03-03T00:50:49.979Z,2.10
2023-03-03T00:53:19.032Z,2.20
2023-03-03T00:55:48.088Z,2.20
2023-03-03T00:58:15.080Z,2.20
2023-03-03T01:00:43.284Z,2.30
2023-03-03T01:03:14.611Z,2.30
2023-03-03T01:05:41.420Z,2.30
2023-03-03T01:08:08.384Z,2.20
2023-03-03T01:10:40.460Z,2.30
2023-03-03T01:13:07.753Z,2.20
2023-03-03T01:15:34.654Z,2.30
2023-03-03T01:18:01.421Z,2.30
2023-03-03T01:20:28.206Z,2.20
2023-03-03T01:22:54.950Z,2.20
2023-03-03T01:25:21.690Z,2.20
2023-03-03T01:27:48.384Z,2.20
2023-03-03T01:30:15.606Z,2.10
2023-03-03T01:32:42.327Z,2.10
2023-03-03T01:35:09.419Z,2.10
2023-03-03T01:37:36.563Z,2.10
2023-03-03T01:40:05.533Z,2.00
2023-03-03T01:42:32.585Z,1.90
2023-03-03T01:45:24.944Z,1.90
2023-03-03T01:48:06.027Z,1.90
2023-03-03T01:50:45.917Z,1.70
2023-03-03T01:53:36.628Z,1.60
2023-03-03T01:56:07.344Z,1.40
2023-03-03T01:58:44.988Z,1.50
2023-03-03T02:01:15.767Z,1.50
2023-03-03T02:03:44.194Z,1.50
2023-03-03T02:06:15.070Z,1.50
2023-03-03T02:09:03.870Z,1.50
2023-03-03T02:11:32.927Z,1.60
2023-03-03T02:13:59.647Z,1.70
2023-03-03T02:16:27.058Z,1.70
2023-03-03T02:18:53.959Z,1.60
2023-03-03T02:21:23.033Z,1.60
2023-03-03T02:24:10.572Z,1.50
2023-03-03T02:26:41.201Z,1.60
2023-03-03T02:29:09.182Z,1.70
2023-03-03T02:31:37.255Z,1.60
2023-03-03T02:34:04.129Z,1.60
2023-03-03T02:36:36.618Z,1.60
2023-03-03T02:39:22.413Z,1.50
2023-03-03T02:42:07.908Z,1.30
2023-03-03T02:44:35.447Z,1.40
2023-03-03T02:47:02.217Z,1.50
2023-03-03T02:49:34.275Z,1.50
2023-03-03T02:52:02.727Z,1.50
2023-03-03T02:54:30.944Z,1.60
2023-03-03T02:56:59.168Z,1.50
2023-03-03T02:59:25.879Z,1.50
2023-03-03T03:01:54.537Z,1.50
2023-03-03T03:04:27.916Z,1.50
2023-03-03T03:06:55.716Z,1.60
2023-03-03T03:09:24.396Z,1.70
2023-03-03T03:11:51.528Z,1.70
2023-03-03T03:14:18.424Z,1.60
2023-03-03T03:16:45.149Z,1.40
2023-03-03T03:19:12.057Z,1.30
2023-03-03T03:21:38.966Z,1.30
2023-03-03T03:24:05.999Z,1.40
2023-03-03T03:26:32.660Z,1.40
2023-03-03T03:28:59.492Z,1.40
2023-03-03T03:31:26.286Z,1.40
2023-03-03T03:33:53.102Z,1.40
2023-03-03T03:36:20.017Z,1.40
2023-03-03T03:38:46.739Z,1.40
2023-03-03T03:41:13.857Z,1.40
2023-03-03T03:43:40.830Z,1.40
2023-03-03T03:46:08.369Z,1.30
2023-03-03T03:48:35.442Z,1.30
2023-03-03T03:51:02.179Z,1.30
2023-03-03T03:53:29.036Z,1.30
2023-03-03T03:55:55.889Z,1.30
2023-03-03T03:58:22.673Z,1.30
2023-03-03T04:00:49.687Z,1.20
2023-03-03T04:03:16.460Z,1.20
2023-03-03T04:05:43.926Z,1.10
2023-03-03T04:08:10.812Z,1.00
2023-03-03T04:10:37.569Z,0.90
2023-03-03T04:13:04.893Z,1.10
2023-03-03T04:15:31.687Z,1.10
2023-03-03T04:17:58.484Z,1.10
2023-03-03T04:20:25.206Z,1.20
2023-03-03T04:22:52.080Z,1.10
2023-03-03T04:25:19.076Z,1.10
2023-03-03T04:27:46.145Z,1.10
2023-03-03T04:30:15.050Z,1.10
2023-03-03T04:32:42.494Z,1.20
2023-03-03T04:35:10.565Z,1.00
2023-03-03T04:37:38.873Z,0.90
2023-03-03T04:40:07.749Z,0.90
2023-03-03T04:42:34.917Z,0.90
2023-03-03T04:45:01.561Z,0.80
2023-03-03T04:47:28.331Z,0.70
2023-03-03T04:49:55.018Z,0.80
2023-03-03T04:52:21.795Z,0.90
2023-03-03T04:54:48.532Z,0.90
2023-03-03T04:57:15.270Z,0.90
2023-03-03T04:59:42.001Z,1.00
2023-03-03T05:02:08.701Z,1.10
2023-03-03T05:04:35.827Z,1.20
2023-03-03T05:07:02.616Z,1.20
2023-03-03T05:09:29.281Z,1.10
2023-03-03T05:11:56.074Z,0.90
2023-03-03T05:14:22.998Z,0.80
2023-03-03T05:16:49.712Z,0.70
2023-03-03T05:19:16.504Z,0.70
2023-03-03T05:21:43.569Z,0.90
2023-03-03T05:24:11.777Z,0.90
2023-03-03T05:26:39.646Z,1.00
2023-03-03T05:29:07.101Z,1.00
2023-03-03T05:31:34.121Z,1.10
2023-03-03T05:34:00.848Z,1.10
2023-03-03T05:36:27.858Z,1.20
2023-03-03T05:38:54.556Z,1.20
2023-03-03T05:41:21.781Z,1.20
2023-03-03T05:43:48.534Z,1.10
2023-03-03T05:46:15.222Z,1.00
2023-03-03T05:48:42.126Z,0.90
2023-03-03T05:51:08.890Z,0.90
2023-03-03T05:53:35.683Z,1.00
2023-03-03T05:56:02.547Z,1.00
2023-03-03T05:58:29.366Z,1.10
2023-03-03T06:00:56.207Z,1.10
2023-03-03T06:03:23.204Z,1.10
2023-03-03T06:05:49.895Z,1.10
2023-03-03T06:08:16.594Z,1.10
2023-03-03T06:10:43.284Z,1.10
2023-03-03T06:13:09.972Z,1.10
2023-03-03T06:15:36.789Z,1.10
2023-03-03T06:18:03.663Z,1.00
2023-03-03T06:20:30.371Z,1.00
2023-03-03T06:22:57.064Z,1.10
2023-03-03T06:25:23.817Z,1.00
2023-03-03T06:27:50.575Z,0.80
2023-03-03T06:30:18.852Z,0.70
2023-03-03T06:32:46.016Z,0.70
2023-03-03T06:35:12.922Z,0.60
2023-03-03T06:37:40.004Z,0.70
2023-03-03T06:40:07.572Z,0.80
2023-03-03T06:42:34.396Z,0.90
2023-03-03T06:45:01.135Z,1.00
2023-03-03T06:47:27.820Z,1.00
2023-03-03T06:49:54.575Z,1.00
2023-03-03T06:52:25.373Z,1.00
2023-03-03T06:54:55.503Z,0.90
2023-03-03T06:57:34.214Z,1.00
2023-03-03T07:00:20.278Z,0.80
2023-03-03T07:02:53.662Z,0.80
2023-03-03T07:05:26.467Z,1.00
2023-03-03T07:07:54.509Z,1.10
2023-03-03T07:10:27.110Z,1.20
2023-03-03T07:12:56.653Z,1.30
2023-03-03T07:15:34.419Z,1.30
2023-03-03T07:18:02.436Z,1.20
2023-03-03T07:20:41.800Z,1.10
2023-03-03T07:23:23.887Z,1.00
2023-03-03T07:25:52.450Z,1.10
2023-03-03T07:28:28.333Z,1.20
2023-03-03T07:30:57.049Z,1.20
2023-03-03T07:33:35.260Z,1.20
2023-03-03T07:36:04.016Z,1.30
2023-03-03T07:38:57.201Z,1.40
2023-03-03T07:41:24.015Z,1.50
2023-03-03T07:43:54.572Z,1.50
2023-03-03T07:46:34.803Z,1.60
2023-03-03T07:49:01.929Z,1.40
2023-03-03T07:51:37.222Z,1.40
2023-03-03T07:54:45.778Z,1.20
2023-03-03T07:57:36.621Z,1.20
2023-03-03T08:00:29.350Z,1.40
2023-03-03T08:03:05.021Z,1.50
2023-03-03T08:05:36.779Z,1.70
2023-03-03T08:08:09.340Z,1.80
2023-03-03T08:10:54.971Z,1.80
2023-03-03T08:13:29.624Z,2.00
2023-03-03T08:16:09.320Z,1.90
2023-03-03T08:18:43.198Z,1.60
2023-03-03T08:21:19.136Z,1.60
2023-03-03T08:23:46.394Z,1.80
2023-03-03T08:26:14.036Z,1.80
2023-03-03T08:28:41.055Z,1.90
2023-03-03T08:31:18.382Z,1.90
2023-03-03T08:33:51.920Z,1.90
2023-03-03T08:36:19.067Z,1.90
2023-03-03T08:38:46.001Z,2.00
2023-03-03T08:41:12.912Z,2.00
2023-03-03T08:43:40.031Z,2.20
2023-03-03T08:46:10.094Z,2.30
2023-03-03T08:48:36.922Z,2.30
2023-03-03T08:51:04.227Z,2.30
2023-03-03T08:53:33.488Z,2.40
2023-03-03T08:56:00.241Z,2.40
2023-03-03T08:58:34.994Z,2.50
2023-03-03T09:01:02.656Z,2.60
2023-03-03T09:03:30.003Z,2.60
2023-03-03T09:05:56.864Z,2.60
2023-03-03T09:08:23.567Z,2.60
2023-03-03T09:10:50.264Z,2.60
2023-03-03T09:13:21.675Z,2.70
2023-03-03T09:15:49.178Z,2.70
2023-03-03T09:18:24.616Z,2.80
2023-03-03T09:20:57.375Z,2.90
2023-03-03T09:23:24.207Z,2.60
2023-03-03T09:25:52.128Z,2.50
2023-03-03T09:28:24.676Z,2.40
2023-03-03T09:30:53.062Z,2.50
2023-03-03T09:33:30.753Z,2.30
2023-03-03T09:36:12.119Z,2.10
2023-03-03T09:38:44.360Z,2.10
2023-03-03T09:41:36.162Z,2.20
2023-03-03T09:44:22.255Z,2.30
2023-03-03T09:47:07.665Z,2.40
2023-03-03T09:49:41.125Z,2.60
2023-03-03T09:52:35.666Z,2.60
2023-03-03T09:55:17.320Z,2.60
2023-03-03T09:58:12.610Z,2.60
2023-03-03T10:00:57.774Z,2.50
2023-03-03T10:03:42.260Z,2.80
2023-03-03T10:06:39.046Z,3.10
2023-03-03T10:09:08.887Z,3.20
2023-03-03T10:12:17.919Z,3.30
2023-03-03T10:14:47.849Z,3.40
2023-03-03T10:17:36.520Z,3.50
2023-03-03T10:20:40.354Z,3.20
2023-03-03T10:23:32.436Z,3.00
2023-03-03T10:26:14.329Z,3.20
2023-03-03T10:28:56.892Z,3.40
2023-03-03T10:31:46.654Z,3.20
2023-03-03T10:34:26.307Z,3.10
2023-03-03T10:37:18.849Z,3.20
2023-03-03T10:40:10.789Z,3.40
2023-03-03T10:43:26.047Z,3.50
2023-03-03T10:46:16.854Z,3.40
2023-03-03T10:49:02.304Z,3.30
2023-03-03T10:51:50.267Z,3.20
2023-03-03T10:54:30.435Z,3.00
2023-03-03T10:57:04.373Z,3.00
2023-03-03T10:59:40.477Z,2.90
2023-03-03T11:02:36.283Z,3.10
2023-03-03T11:05:36.782Z,3.30
2023-03-03T11:08:22.734Z,3.60
2023-03-03T11:11:24.993Z,3.70
2023-03-03T11:14:06.019Z,3.80
2023-03-03T11:16:35.508Z,3.90
2023-03-03T11:19:24.446Z,4.10
2023-03-03T11:21:53.898Z,4.00
2023-03-03T11:24:44.673Z,4.10
2023-03-03T11:27:39.724Z,4.20
2023-03-03T11:30:29.962Z,4.30
2023-03-03T11:33:09.725Z,4.30
2023-03-03T11:35:36.464Z,4.40
2023-03-03T11:38:44.354Z,4.40
2023-03-03T11:41:38.225Z,4.30
2023-03-03T11:44:25.520Z,4.30
2023-03-03T11:47:03.177Z,4.50
2023-03-03T11:49:51.884Z,4.50
2023-03-03T11:52:47.806Z,4.50
2023-03-03T11:55:21.845Z,4.50
2023-03-03T11:58:17.436Z,4.40
2023-03-03T12:01:00.933Z,4.40
2023-03-03T12:03:35.903Z,4.40
2023-03-03T12:06:22.251Z,4.50
2023-03-03T12:08:48.814Z,4.50
2023-03-03T12:11:28.279Z,4.50
2023-03-03T12:14:07.531Z,4.30
2023-03-03T12:16:46.344Z,4.10
2023-03-03T12:19:27.796Z,4.30
2023-03-03T12:22:06.197Z,4.50
2023-03-03T12:24:46.880Z,4.60
2023-03-03T12:27:41.623Z,4.60
2023-03-03T12:30:35.677Z,4.70
2023-03-03T12:33:23.538Z,4.70
2023-03-03T12:35:57.911Z,4.70
2023-03-03T12:38:43.170Z,4.90
2023-03-03T12:41:43.437Z,5.00
2023-03-03T12:44:32.829Z,5.10
2023-03-03T12:47:06.593Z,5.00
2023-03-03T12:50:08.586Z,5.00
2023-03-03T12:52:47.391Z,5.10
2023-03-03T12:55:32.177Z,5.00
2023-03-03T12:58:37.736Z,4.60
2023-03-03T13:01:14.939Z,4.50
2023-03-03T13:04:05.137Z,4.30
2023-03-03T13:06:50.688Z,4.40
2023-03-03T13:09:40.971Z,4.70
2023-03-03T13:12:26.515Z,4.90
2023-03-03T13:15:13.836Z,5.00
2023-03-03T13:17:56.569Z,5.00
2023-03-03T13:20:37.281Z,5.20
2023-03-03T13:23:23.042Z,5.40
2023-03-03T13:25:58.614Z,5.20
2023-03-03T13:28:34.351Z,5.10
2023-03-03T13:31:15.575Z,5.10
2023-03-03T13:33:52.792Z,5.10
2023-03-03T13:36:20.602Z,5.10
2023-03-03T13:38:52.094Z,5.00
2023-03-03T13:41:24.654Z,5.10
2023-03-03T13:44:12.141Z,5.10
2023-03-03T13:47:07.041Z,5.00
2023-03-03T13:49:48.191Z,5.10
2023-03-03T13:52:29.279Z,5.30
2023-03-03T13:54:57.384Z,5.40
2023-03-03T13:57:38.690Z,5.40
2023-03-03T14:00:42.911Z,5.40
2023-03-03T14:03:27.877Z,5.30
2023-03-03T14:06:05.136Z,5.20
2023-03-03T14:08:49.859Z,5.40
2023-03-03T14:11:50.673Z,5.50
2023-03-03T14:14:17.358Z,5.50
2023-03-03T14:16:58.797Z,5.30
2023-03-03T14:19:35.005Z,5.30
2023-03-03T14:22:34.288Z,5.40
2023-03-03T14:25:01.836Z,5.40
2023-03-03T14:27:40.247Z,5.30
2023-03-03T14:30:22.020Z,5.40
2023-03-03T14:33:09.769Z,5.50
2023-03-03T14:36:04.653Z,5.50
2023-03-03T14:38:34.403Z,5.30
2023-03-03T14:41:12.231Z,5.40
2023-03-03T14:43:59.918Z,5.40
2023-03-03T14:46:33.422Z,5.40
2023-03-03T14:49:05.677Z,5.30
2023-03-03T14:51:41.771Z,5.30
2023-03-03T14:54:26.671Z,5.10
2023-03-03T14:57:02.193Z,5.20
2023-03-03T14:59:29.102Z,5.20
2023-03-03T15:02:16.843Z,5.30
2023-03-03T15:04:45.437Z,5.40
2023-03-03T15:07:38.811Z,5.50
2023-03-03T15:10:07.701Z,5.40
2023-03-03T15:12:40.637Z,5.50
2023-03-03T15:15:11.497Z,5.40
2023-03-03T15:17:44.137Z,5.40
2023-03-03T15:20:21.776Z,5.40
2023-03-03T15:22:57.102Z,5.40
2023-03-03T15:25:42.784Z,5.40
2023-03-03T15:28:31.630Z,5.40
2023-03-03T15:31:17.189Z,5.50
2023-03-03T15:34:02.432Z,5.50
2023-03-03T15:36:52.617Z,5.40
2023-03-03T15:39:41.189Z,5.50
2023-03-03T15:42:22.520Z,5.60
2023-03-03T15:45:03.241Z,5.60
2023-03-03T15:47:38.321Z,5.90
2023-03-03T15:50:23.887Z,6.10
2023-03-03T15:53:25.449Z,6.10
2023-03-03T15:56:01.304Z,6.10
2023-03-03T15:58:39.756Z,6.00
2023-03-03T16:01:19.277Z,6.00
2023-03-03T16:03:54.673Z,5.90
2023-03-03T16:06:34.415Z,5.80
2023-03-03T16:09:14.480Z,5.70
2023-03-03T16:11:47.251Z,5.80
2023-03-03T16:14:22.776Z,5.60
2023-03-03T16:17:11.902Z,5.40
2023-03-03T16:19:45.214Z,5.40
2023-03-03T16:22:31.174Z,5.30
2023-03-03T16:25:25.299Z,5.30
2023-03-03T16:28:11.264Z,5.30
2023-03-03T16:30:52.362Z,5.30
2023-03-03T16:34:04.231Z,5.20
2023-03-03T16:36:55.146Z,5.20
2023-03-03T16:39:46.050Z,5.20
2023-03-03T16:42:33.484Z,5.10
2023-03-03T16:45:06.831Z,5.10
2023-03-03T16:47:57.496Z,5.00
2023-03-03T16:50:24.235Z,5.00
2023-03-03T16:53:04.761Z,4.90
2023-03-03T16:55:42.191Z,4.90
2023-03-03T16:58:17.806Z,4.80
2023-03-03T17:01:08.751Z,4.70
2023-03-03T17:03:58.997Z,4.70
2023-03-03T17:06:41.392Z,4.70
2023-03-03T17:09:32.876Z,4.70
2023-03-03T17:12:14.126Z,4.60
2023-03-03T17:14:58.488Z,4.60
2023-03-03T17:17:47.112Z,4.50
2023-03-03T17:20:23.712Z,4.50
2023-03-03T17:23:29.969Z,4.40
2023-03-03T17:26:05.777Z,4.30
2023-03-03T17:28:50.361Z,4.30
2023-03-03T17:31:52.282Z,4.30
2023-03-03T17:34:41.175Z,4.20
2023-03-03T17:37:17.005Z,4.20
2023-03-03T17:39:58.198Z,4.20
2023-03-03T17:42:43.342Z,4.30
2023-03-03T17:45:15.558Z,4.30
2023-03-03T17:47:57.509Z,4.40
2023-03-03T17:50:54.899Z,4.50
2023-03-03T17:53:43.153Z,4.40
2023-03-03T17:56:24.090Z,4.50
2023-03-03T17:59:17.592Z,4.60
2023-03-03T18:02:30.392Z,4.70
2023-03-03T18:05:37.835Z,4.70
2023-03-03T18:08:23.210Z,4.70
2023-03-03T18:10:53.045Z,4.70
2023-03-03T18:13:48.894Z,4.70
2023-03-03T18:16:27.185Z,4.80
2023-03-03T18:19:12.340Z,4.80
2023-03-03T18:21:51.872Z,4.90
2023-03-03T18:24:34.556Z,4.90
2023-03-03T18:27:32.048Z,4.80
2023-03-03T18:30:08.045Z,4.80
2023-03-03T18:32:59.693Z,4.80
2023-03-03T18:35:45.960Z,4.80
2023-03-03T18:38:15.395Z,4.80
2023-03-03T18:40:54.186Z,4.90
2023-03-03T18:43:39.901Z,4.90
2023-03-03T18:46:25.314Z,4.90
2023-03-03T18:48:55.297Z,4.90
2023-03-03T18:51:40.164Z,4.90
2023-03-03T18:54:12.740Z,4.90
2023-03-03T18:56:57.167Z,4.90
2023-03-03T18:59:36.370Z,4.90
2023-03-03T19:02:21.187Z,4.90
2023-03-03T19:04:55.972Z,4.80
2023-03-03T19:07:44.563Z,4.80
2023-03-03T19:10:20.239Z,4.70
2023-03-03T19:12:59.785Z,4.70
2023-03-03T19:15:29.623Z,4.70
2023-03-03T19:18:06.756Z,4.70
2023-03-03T19:20:49.211Z,4.70
2023-03-03T19:23:20.108Z,4.70
2023-03-03T19:26:06.834Z,4.70
2023-03-03T19:28:42.620Z,4.80
2023-03-03T19:31:28.473Z,4.70
2023-03-03T19:34:33.710Z,4.70
2023-03-03T19:37:09.380Z,4.70
2023-03-03T19:40:00.898Z,4.60
2023-03-03T19:42:55.489Z,4.60
2023-03-03T19:45:56.137Z,4.60
2023-03-03T19:48:35.068Z,4.70
2023-03-03T19:51:13.341Z,4.80
2023-03-03T19:54:10.895Z,4.80
2023-03-03T19:56:45.666Z,4.80
2023-03-03T19:59:37.779Z,4.80
2023-03-03T20:02:28.825Z,4.70
2023-03-03T20:05:01.403Z,4.80
2023-03-03T20:07:29.906Z,4.90
2023-03-03T20:10:18.321Z,4.90
2023-03-03T20:13:02.488Z,4.90
2023-03-03T20:15:59.683Z,5.00
2023-03-03T20:18:44.154Z,4.90
2023-03-03T20:21:32.917Z,4.80
2023-03-03T20:24:05.483Z,4.70
2023-03-03T20:26:35.118Z,4.80
2023-03-03T20:29:30.475Z,4.90
2023-03-03T20:32:11.216Z,5.00
2023-03-03T20:35:03.251Z,5.00
2023-03-03T20:37:44.654Z,5.00
2023-03-03T20:40:38.756Z,5.00
2023-03-03T20:43:27.550Z,5.00
2023-03-03T20:46:19.397Z,5.10
2023-03-03T20:49:09.337Z,5.00
2023-03-03T20:51:51.113Z,5.00
2023-03-03T20:54:17.777Z,5.00
2023-03-03T20:56:56.612Z,5.00
2023-03-03T20:59:38.900Z,5.00
2023-03-03T21:02:32.825Z,5.00
2023-03-03T21:05:16.537Z,5.00
2023-03-03T21:08:01.325Z,5.10
2023-03-03T21:10:35.404Z,5.00
2023-03-03T21:13:44.236Z,4.90
2023-03-03T21:16:15.991Z,4.90
2023-03-03T21:18:48.013Z,4.90
2023-03-03T21:21:14.816Z,5.00
2023-03-03T21:23:41.572Z,5.00
2023-03-03T21:26:08.307Z,5.00
2023-03-03T21:28:35.135Z,4.90
2023-03-03T21:31:13.936Z,4.90
2023-03-03T21:33:53.947Z,5.00
2023-03-03T21:36:44.964Z,5.00
2023-03-03T21:39:29.875Z,5.00
2023-03-03T21:42:02.472Z,5.00
2023-03-03T21:44:38.024Z,4.80
2023-03-03T21:47:07.187Z,4.90
2023-03-03T21:49:34.231Z,5.00
2023-03-03T21:52:01.803Z,4.90
2023-03-03T21:54:29.270Z,4.90
2023-03-03T21:56:55.981Z,4.90
2023-03-03T21:59:22.772Z,4.90
2023-03-03T22:01:49.471Z,4.90
2023-03-03T22:04:16.384Z,4.80
2023-03-03T22:06:43.268Z,4.80
2023-03-03T22:09:10.269Z,4.80
2023-03-03T22:11:37.104Z,4.80
2023-03-03T22:14:05.683Z,4.80
2023-03-03T22:16:32.893Z,4.80
2023-03-03T22:19:02.410Z,4.80
2023-03-03T22:21:30.005Z,4.80
2023-03-03T22:23:57.492Z,4.80
2023-03-03T22:26:24.742Z,4.80
2023-03-03T22:28:51.618Z,4.70
2023-03-03T22:31:20.067Z,4.70
2023-03-03T22:33:48.265Z,4.70
2023-03-03T22:36:15.934Z,4.60
2023-03-03T22:38:42.840Z,4.60
2023-03-03T22:41:09.541Z,4.60
2023-03-03T22:43:36.429Z,4.60
2023-03-03T22:46:03.319Z,4.50
2023-03-03T22:48:30.641Z,4.60
2023-03-03T22:50:57.566Z,4.50
2023-03-03T22:53:25.348Z,4.50
2023-03-03T22:55:52.731Z,4.50
2023-03-03T22:58:20.435Z,4.50
2023-03-03T23:00:48.186Z,4.50
2023-03-03T23:03:15.405Z,4.40
2023-03-03T23:05:42.677Z,4.30
2023-03-03T23:08:13.464Z,4.20
2023-03-03T23:10:40.499Z,4.10
2023-03-03T23:13:08.242Z,4.10
2023-03-03T23:15:35.449Z,4.00
2023-03-03T23:18:02.259Z,3.90
2023-03-03T23:20:31.519Z,3.80
2023-03-03T23:22:59.214Z,3.70
2023-03-03T23:25:26.583Z,3.70
2023-03-03T23:27:53.534Z,3.70
2023-03-03T23:30:21.420Z,3.60
2023-03-03T23:32:49.007Z,3.60
2023-03-03T23:35:16.118Z,3.50
2023-03-03T23:37:42.857Z,3.40
2023-03-03T23:40:10.681Z,3.30
2023-03-03T23:42:37.407Z,3.30
2023-03-03T23:45:05.038Z,3.30
2023-03-03T23:47:31.765Z,3.20
2023-03-03T23:49:58.607Z,3.20
2023-03-03T23:52:25.333Z,3.20
2023-03-03T23:54:53.000Z,3.10
2023-03-03T23:57:20.296Z,3.10
2023-03-03T23:59:47.100Z,3.00
